createdAt,value
2022-08-24T00:05:28.686Z,20.15
2022-08-24T00:15:36.395Z,20.16
2022-08-24T00:25:43.849Z,20.13
2022-08-24T00:35:50.855Z,20.07
2022-08-24T00:45:58.084Z,20.06
2022-08-24T00:56:07.983Z,19.97
2022-08-24T01:06:34.900Z,19.89
2022-08-24T01:16:59.629Z,19.87
2022-08-24T01:27:10.174Z,19.76
2022-08-24T01:37:17.713Z,19.79
2022-08-24T01:47:25.657Z,19.77
2022-08-24T01:57:33.267Z,19.73
2022-08-24T02:07:41.171Z,19.62
2022-08-24T02:17:48.393Z,19.70
2022-08-24T02:27:54.489Z,19.66
2022-08-24T02:38:01.683Z,19.51
2022-08-24T02:48:09.160Z,19.27
2022-08-24T02:58:18.113Z,19.23
2022-08-24T03:08:26.431Z,19.17
2022-08-24T03:18:36.913Z,19.00
2022-08-24T03:28:45.299Z,18.88
2022-08-24T03:38:52.300Z,18.73
2022-08-24T03:49:00.184Z,18.68
2022-08-24T03:59:10.277Z,18.65
2022-08-24T04:09:18.457Z,18.57
2022-08-24T04:19:25.436Z,18.66
2022-08-24T04:39:39.688Z,18.78
2022-08-24T04:49:47.881Z,18.79
2022-08-24T04:59:56.558Z,18.92
2022-08-24T05:10:02.827Z,19.07
2022-08-24T05:20:12.137Z,19.14
2022-08-24T05:30:19.742Z,19.25
2022-08-24T05:40:32.551Z,19.37
2022-08-24T05:50:40.685Z,19.39
2022-08-24T06:00:49.796Z,19.38
2022-08-24T06:10:55.779Z,19.48
2022-08-24T06:21:05.563Z,19.44
2022-08-24T06:31:12.540Z,19.49
2022-08-24T06:41:18.801Z,19.80
2022-08-24T06:51:25.688Z,20.01
2022-08-24T07:01:33.765Z,20.26
2022-08-24T07:11:41.589Z,20.55
2022-08-24T07:21:48.724Z,20.94
2022-08-24T07:31:55.711Z,21.30
2022-08-24T07:42:13.039Z,21.62
2022-08-24T07:52:22.605Z,21.95
2022-08-24T08:02:29.810Z,22.18
2022-08-24T08:12:42.973Z,22.59
2022-08-24T08:23:08.425Z,23.03
2022-08-24T08:33:15.658Z,23.68
2022-08-24T08:43:29.519Z,24.26
2022-08-24T08:54:05.702Z,24.35
2022-08-24T09:04:25.517Z,24.39
2022-08-24T09:25:11.580Z,24.50
2022-08-24T09:35:26.631Z,24.81
2022-08-24T09:46:01.248Z,25.02
2022-08-24T09:56:29.566Z,25.48
2022-08-24T10:06:44.619Z,25.69
2022-08-24T10:16:51.014Z,25.66
2022-08-24T10:27:21.407Z,25.98
2022-08-24T10:38:17.128Z,26.15
2022-08-24T10:48:34.571Z,25.84
2022-08-24T11:08:54.293Z,26.46
2022-08-24T11:19:04.001Z,26.17
2022-08-24T11:29:11.155Z,26.19
2022-08-24T11:39:16.361Z,26.55
2022-08-24T11:49:28.035Z,26.48
2022-08-24T12:09:45.996Z,26.18
2022-08-24T12:19:57.361Z,26.63
2022-08-24T12:30:07.275Z,26.77
2022-08-24T12:40:22.824Z,26.20
2022-08-24T12:50:32.539Z,25.94
2022-08-24T13:00:46.408Z,26.17
2022-08-24T13:10:54.060Z,26.33
2022-08-24T13:21:01.432Z,26.49
2022-08-24T13:31:20.752Z,25.98
2022-08-24T13:41:54.549Z,26.01
2022-08-24T13:52:09.519Z,26.24
2022-08-24T14:02:27.840Z,26.36
2022-08-24T14:12:45.848Z,26.05
2022-08-24T14:22:56.429Z,26.04
2022-08-24T14:33:10.947Z,26.22
2022-08-24T14:43:30.603Z,26.29
2022-08-24T14:53:50.416Z,26.28
2022-08-24T15:04:36.191Z,26.06
2022-08-24T15:14:53.854Z,26.18
2022-08-24T15:25:06.133Z,26.14
2022-08-24T15:35:24.387Z,26.18
2022-08-24T15:45:32.102Z,26.20
2022-08-24T15:55:38.265Z,26.18
2022-08-24T16:05:49.432Z,26.12
2022-08-24T16:15:59.393Z,25.92
2022-08-24T16:26:22.367Z,25.87
2022-08-24T16:36:29.765Z,25.93
2022-08-24T16:46:37.059Z,25.93
2022-08-24T16:56:42.521Z,25.71
2022-08-24T17:06:50.824Z,25.40
2022-08-24T17:16:59.100Z,25.01
2022-08-24T17:27:07.356Z,23.89
2022-08-24T17:37:15.326Z,22.56
2022-08-24T17:47:22.629Z,21.76
2022-08-24T17:57:28.967Z,21.22
2022-08-24T18:07:52.588Z,20.82
2022-08-24T18:28:09.199Z,20.31
2022-08-24T18:38:16.695Z,20.29
2022-08-24T18:48:24.988Z,19.88
2022-08-24T18:58:32.398Z,19.82
2022-08-24T19:08:39.735Z,19.92
2022-08-24T19:18:49.347Z,19.97
2022-08-24T19:28:57.294Z,20.03
2022-08-24T19:39:04.993Z,19.98
2022-08-24T19:49:13.371Z,19.81
2022-08-24T19:59:22.541Z,19.66
2022-08-24T20:09:29.132Z,19.58
2022-08-24T20:19:37.764Z,19.58
2022-08-24T20:29:44.964Z,19.68
2022-08-24T20:39:53.518Z,19.80
2022-08-24T20:50:00.812Z,19.77
2022-08-24T21:00:09.742Z,19.72
2022-08-24T21:10:17.956Z,19.63
2022-08-24T21:20:25.745Z,19.56
2022-08-24T21:30:34.983Z,19.52
2022-08-24T21:40:43.331Z,19.46
2022-08-24T21:50:50.936Z,19.32
2022-08-24T22:00:59.287Z,19.31
2022-08-24T22:11:08.391Z,19.31
2022-08-24T22:21:17.667Z,19.35
2022-08-24T22:31:27.035Z,19.37
2022-08-24T22:41:34.467Z,19.47
2022-08-24T22:51:41.728Z,19.59
2022-08-24T23:01:51.876Z,19.59
2022-08-24T23:11:59.732Z,19.60
2022-08-24T23:22:08.829Z,19.53
2022-08-24T23:32:18.290Z,19.50
2022-08-24T23:42:25.694Z,19.47
2022-08-24T23:52:32.937Z,19.53
